Terminal Aerodrome Forecast
Issued by NWS

Home | Current Version | Previous Version | Text Only | Print | Product List | Glossary On
Versions: 1 2 3 4 5 6 7 8 9 10 11 12 13 14 15 16 17
672
FTUS44 KTSA 302326
TAFFYV
TAF
KFYV 302326Z 0100/0124 20014G22KT P6SM VCSH BKN050
     FM010500 22014G22KT P6SM BKN015
     FM011500 25015G25KT P6SM BKN035
     FM011900 28015G25KT P6SM SKC=

USA.gov is the U.S. government's official web portal to all federal, state and local government web resources and services.